Time;durP1;ratioP1;P1;durP2;ratioP2;P2;SDS_P1;SDS_P2;PMS_P1;PMS_P2;Temp;Humidity;BMP_temperature;BMP_pressure;BME280_temperature;BME280_humidity;BME280_pressure;Samples;Min_cycle;Max_cycle;Signal;HPM_P1;HPM_P2
2023/10/18 00:00:53;;;;;;;15.60;10.70;;;4.80;99.90;;;;;;6150210;23;20016;-81
2023/10/18 00:03:19;;;;;;;18.65;11.90;;;4.80;99.90;;;;;;6149415;23;20008;-81
2023/10/18 00:05:48;;;;;;;17.65;11.73;;;4.90;99.90;;;;;;6149707;23;20052;-81
2023/10/18 00:08:17;;;;;;;21.40;12.13;;;5.00;99.90;;;;;;6174785;23;20021;-81
2023/10/18 00:10:42;;;;;;;18.05;11.80;;;5.00;99.90;;;;;;6174276;23;20016;-81
2023/10/18 00:13:08;;;;;;;18.50;12.77;;;5.00;99.90;;;;;;6149364;23;20067;-81
2023/10/18 00:15:34;;;;;;;20.02;12.55;;;5.00;99.90;;;;;;6175241;23;20362;-81
2023/10/18 00:18:00;;;;;;;19.58;13.02;;;5.00;99.90;;;;;;6149906;23;20446;-81
2023/10/18 00:20:26;;;;;;;20.08;13.25;;;5.00;99.90;;;;;;6174511;23;20024;-81
2023/10/18 00:22:53;;;;;;;21.27;13.70;;;5.00;99.90;;;;;;6150901;23;20012;-81
2023/10/18 00:25:22;;;;;;;23.60;13.65;;;5.00;99.90;;;;;;6149438;23;20419;-81
2023/10/18 00:27:48;;;;;;;18.42;12.85;;;5.00;99.90;;;;;;6174308;23;20382;-81
2023/10/18 00:30:16;;;;;;;22.08;14.20;;;5.00;99.90;;;;;;6150538;23;20311;-81
2023/10/18 00:32:43;;;;;;;19.92;14.20;;;5.00;99.90;;;;;;6149554;23;20448;-81
2023/10/18 00:36:10;;;;;;;21.60;14.15;;;5.00;99.90;;;;;;6150090;23;20016;-81
2023/10/18 00:38:04;;;;;;;21.42;15.20;;;5.00;99.90;;;;;;6161469;23;20059;-81
2023/10/18 00:43:29;;;;;;;26.35;17.13;;;4.90;99.90;;;;;;6174267;23;20139;-81
2023/10/18 00:45:55;;;;;;;29.48;19.15;;;4.90;99.90;;;;;;6174157;23;20066;-81
2023/10/18 00:48:24;;;;;;;31.02;20.95;;;4.90;99.90;;;;;;6150218;23;20043;-81
2023/10/18 00:50:54;;;;;;;30.63;21.10;;;4.90;99.90;;;;;;6174658;23;20449;-81
2023/10/18 00:53:31;;;;;;;31.48;21.70;;;4.90;99.90;;;;;;6150566;23;20024;-81
2023/10/18 00:56:04;;;;;;;32.17;22.58;;;4.90;99.90;;;;;;6175605;23;20021;-80
2023/10/18 00:58:34;;;;;;;33.58;24.02;;;4.80;99.90;;;;;;6151102;23;20008;-81
2023/10/18 01:01:10;;;;;;;35.80;24.73;;;4.90;99.90;;;;;;6149731;23;20013;-81
2023/10/18 01:03:42;;;;;;;35.70;24.10;;;4.90;99.90;;;;;;6151831;23;20009;-81
2023/10/18 01:06:24;;;;;;;35.58;24.10;;;5.00;99.90;;;;;;6151121;23;20016;-81
2023/10/18 01:08:50;;;;;;;35.28;22.63;;;4.90;99.90;;;;;;6174720;23;20452;-81
2023/10/18 01:11:29;;;;;;;31.77;22.60;;;5.00;99.90;;;;;;6150282;23;20020;-81
2023/10/18 01:13:55;;;;;;;33.22;23.85;;;5.00;99.90;;;;;;6150246;23;20392;-81
2023/10/18 01:16:22;;;;;;;36.15;22.80;;;5.10;99.90;;;;;;6151141;23;20507;-81
2023/10/18 01:18:49;;;;;;;33.80;21.90;;;5.10;99.90;;;;;;6150804;23;20420;-81
2023/10/18 01:21:19;;;;;;;29.50;21.13;;;5.10;99.90;;;;;;6175777;23;20059;-81
2023/10/18 01:23:49;;;;;;;32.72;21.23;;;5.10;99.90;;;;;;6151114;23;20039;-81
2023/10/18 01:26:15;;;;;;;32.35;21.33;;;5.20;99.90;;;;;;6150645;23;20021;-80
2023/10/18 01:28:42;;;;;;;34.92;20.60;;;5.20;99.90;;;;;;6150771;23;20406;-81
2023/10/18 01:31:09;;;;;;;30.42;19.25;;;5.20;99.90;;;;;;6174813;23;20027;-81
2023/10/18 01:33:57;;;;;;;33.75;20.38;;;5.20;99.90;;;;;;6149936;23;20013;-81
2023/10/18 01:36:23;;;;;;;32.20;20.77;;;5.10;99.90;;;;;;6174890;23;20099;-81
2023/10/18 01:38:54;;;;;;;26.25;19.00;;;5.20;99.90;;;;;;6173915;23;20075;-81
2023/10/18 01:41:29;;;;;;;28.48;18.85;;;5.20;99.90;;;;;;6174749;23;20082;-81
2023/10/18 01:43:56;;;;;;;;;;;5.10;99.90;;;;;;6150393;23;20008;-81
2023/10/18 01:46:23;;;;;;;25.77;18.05;;;5.10;99.90;;;;;;6175380;23;19970;-81
2023/10/18 01:48:51;;;;;;;28.40;19.70;;;5.20;99.90;;;;;;6150747;23;20474;-81
2023/10/18 01:51:18;;;;;;;25.20;18.50;;;5.00;99.90;;;;;;6175111;23;20058;-81
2023/10/18 01:53:43;;;;;;;33.22;20.08;;;5.10;99.90;;;;;;6174731;23;20099;-81
2023/10/18 01:56:10;;;;;;;29.95;19.40;;;5.00;99.90;;;;;;6149678;23;20477;-81
2023/10/18 01:58:36;;;;;;;35.33;20.38;;;5.10;99.90;;;;;;6174692;23;20012;-81
2023/10/18 02:01:08;;;;;;;27.75;19.80;;;5.10;99.90;;;;;;6150048;23;20318;-81
2023/10/18 02:03:40;;;;;;;29.25;19.17;;;5.00;99.90;;;;;;6150070;23;20100;-81
2023/10/18 02:06:06;;;;;;;31.75;20.05;;;5.00;99.90;;;;;;6174572;23;20017;-81
2023/10/18 02:08:36;;;;;;;29.77;19.20;;;5.00;99.90;;;;;;6150895;23;20013;-81
2023/10/18 02:11:07;;;;;;;27.33;19.15;;;5.00;99.90;;;;;;6174141;23;20032;-81
2023/10/18 02:13:33;;;;;;;29.45;19.35;;;5.10;99.90;;;;;;6149644;23;20017;-81
2023/10/18 02:15:59;;;;;;;30.65;20.15;;;5.00;99.90;;;;;;6150137;23;20047;-81
2023/10/18 02:18:26;;;;;;;31.02;20.30;;;5.00;99.90;;;;;;6175351;23;20013;-84
2023/10/18 02:20:53;;;;;;;29.42;19.95;;;5.00;99.90;;;;;;6175954;23;20088;-85
2023/10/18 02:23:21;;;;;;;32.33;19.92;;;4.90;99.90;;;;;;6150377;23;20334;-84
2023/10/18 02:25:47;;;;;;;30.83;19.27;;;4.90;99.90;;;;;;6149522;23;20052;-84
2023/10/18 02:28:27;;;;;;;33.83;20.58;;;4.90;99.90;;;;;;6149782;23;20020;-84
2023/10/18 02:30:58;;;;;;;32.35;20.35;;;4.90;99.90;;;;;;6176134;23;20465;-84
2023/10/18 02:33:36;;;;;;;28.40;19.63;;;4.80;99.90;;;;;;6151786;23;20385;-84
2023/10/18 02:36:05;;;;;;;26.33;18.15;;;4.90;99.90;;;;;;6151143;23;20079;-84
2023/10/18 02:38:35;;;;;;;32.38;20.55;;;4.80;99.90;;;;;;6150752;23;20472;-84
2023/10/18 02:41:14;;;;;;;31.85;20.63;;;4.80;99.90;;;;;;6149607;23;20016;-84
2023/10/18 02:43:45;;;;;;;30.55;20.45;;;4.70;99.90;;;;;;6149864;23;20454;-84
2023/10/18 02:46:23;;;;;;;30.42;20.50;;;4.70;99.90;;;;;;6150545;23;20032;-84
2023/10/18 02:48:52;;;;;;;31.17;20.45;;;4.80;99.90;;;;;;6151253;23;20016;-84
2023/10/18 02:51:22;;;;;;;32.10;20.95;;;4.80;99.90;;;;;;6151224;23;20026;-83
2023/10/18 02:53:52;;;;;;;30.92;20.42;;;4.70;99.90;;;;;;6150489;23;20066;-84
2023/10/18 02:56:27;;;;;;;30.33;22.00;;;4.80;99.90;;;;;;6175746;23;20021;-84
2023/10/18 02:58:57;;;;;;;29.15;20.58;;;4.90;99.90;;;;;;6175445;23;20257;-84
2023/10/18 03:01:25;;;;;;;32.55;21.75;;;4.80;99.90;;;;;;6175916;23;20421;-84
2023/10/18 03:03:55;;;;;;;32.25;21.17;;;4.90;99.90;;;;;;6151527;23;20104;-84
2023/10/18 03:06:25;;;;;;;32.65;21.75;;;4.80;99.90;;;;;;6151615;23;20454;-84
2023/10/18 03:08:51;;;;;;;29.33;21.23;;;4.80;99.90;;;;;;6150671;23;20337;-84
2023/10/18 03:11:20;;;;;;;32.45;21.33;;;4.80;99.90;;;;;;6175473;23;20709;-84
2023/10/18 03:13:48;;;;;;;31.73;21.67;;;5.00;99.90;;;;;;6150520;23;20016;-84
2023/10/18 03:18:42;;;;;;;31.48;21.42;;;4.90;99.90;;;;;;6175038;23;20020;-84
2023/10/18 03:21:09;;;;;;;32.90;22.17;;;4.90;99.90;;;;;;6151209;23;20525;-84
2023/10/18 03:23:44;;;;;;;33.40;22.17;;;4.90;99.90;;;;;;6175775;23;20016;-84
2023/10/18 03:26:13;;;;;;;33.45;21.58;;;4.90;99.90;;;;;;6151029;23;20017;-84
2023/10/18 03:28:41;;;;;;;35.58;22.95;;;4.90;99.90;;;;;;6149041;23;20469;-84
2023/10/18 03:31:27;;;;;;;32.65;21.80;;;4.90;99.90;;;;;;6150102;23;20027;-84
2023/10/18 03:34:02;;;;;;;30.95;21.20;;;4.90;99.90;;;;;;6149811;23;20013;-84
2023/10/18 03:36:32;;;;;;;31.58;22.30;;;4.90;99.90;;;;;;6175048;23;20032;-84
2023/10/18 03:39:15;;;;;;;31.45;21.55;;;5.00;99.90;;;;;;6174398;23;20048;-84
2023/10/18 03:41:41;;;;;;;32.00;21.70;;;5.00;99.90;;;;;;6149698;23;20008;-84
2023/10/18 03:44:13;;;;;;;30.52;21.75;;;5.00;99.90;;;;;;6174978;23;20562;-84
2023/10/18 03:46:47;;;;;;;29.70;20.98;;;5.00;99.90;;;;;;6149333;23;20063;-84
2023/10/18 03:49:58;;;;;;;31.23;22.53;;;5.00;99.90;;;;;;6175005;23;20114;-84
2023/10/18 03:55:15;;;;;;;37.70;22.10;;;5.10;99.90;;;;;;6174262;23;20074;-85
2023/10/18 03:57:38;;;;;;;32.53;21.75;;;5.20;99.90;;;;;;6172522;23;20051;-84
2023/10/18 04:02:52;;;;;;;32.10;22.67;;;5.10;99.90;;;;;;6174814;23;20492;-81
2023/10/18 04:08:04;;;;;;;36.67;23.67;;;5.10;99.90;;;;;;6174878;23;20488;-81
2023/10/18 04:10:35;;;;;;;36.95;23.00;;;5.20;99.90;;;;;;6173238;23;20241;-81
2023/10/18 04:13:02;;;;;;;33.72;23.02;;;5.20;99.90;;;;;;6173639;23;20215;-81
2023/10/18 04:15:32;;;;;;;32.92;23.88;;;5.20;99.90;;;;;;6151025;23;20019;-81
2023/10/18 04:20:33;;;;;;;37.20;24.48;;;5.20;99.90;;;;;;6174623;23;20402;-80
2023/10/18 04:23:00;;;;;;;34.60;22.67;;;5.20;99.90;;;;;;6175173;23;20044;-81
2023/10/18 04:25:26;;;;;;;32.13;22.63;;;5.20;99.90;;;;;;6149133;23;20017;-81
2023/10/18 04:27:59;;;;;;;33.42;23.17;;;5.20;99.90;;;;;;6174261;23;20051;-81
2023/10/18 04:30:32;;;;;;;38.15;23.15;;;5.20;99.90;;;;;;6174393;23;20418;-81
2023/10/18 04:33:08;;;;;;;34.35;22.92;;;5.20;99.90;;;;;;6150141;23;20017;-82
2023/10/18 04:35:36;;;;;;;35.85;24.75;;;5.20;99.90;;;;;;6149875;23;20071;-81
2023/10/18 04:38:21;;;;;;;35.75;23.95;;;5.10;99.90;;;;;;6175044;23;20017;-81
2023/10/18 04:41:07;;;;;;;35.92;23.13;;;5.10;99.90;;;;;;6173664;23;20450;-81
2023/10/18 04:43:33;;;;;;;34.78;22.92;;;5.20;99.90;;;;;;6149340;23;20099;-81
2023/10/18 04:51:26;;;;;;;35.35;23.90;;;5.20;99.90;;;;;;6174017;23;20031;-81
2023/10/18 04:54:01;;;;;;;38.92;24.95;;;5.10;99.90;;;;;;6173554;23;20095;-81
2023/10/18 04:56:56;;;;;;;35.83;24.73;;;5.10;99.90;;;;;;6174346;23;20113;-81
2023/10/18 05:04:29;;;;;;;;;;;5.10;99.90;;;;;;6173974;23;20099;-81
2023/10/18 05:06:56;;;;;;;;;;;5.00;99.90;;;;;;6175274;23;19970;-81
2023/10/18 05:09:30;;;;;;;36.92;24.63;;;5.10;99.90;;;;;;6173535;23;19918;-81
2023/10/18 05:12:07;;;;;;;39.17;25.67;;;5.10;99.90;;;;;;6173680;23;20393;-81
2023/10/18 05:14:42;;;;;;;39.50;26.25;;;5.00;99.90;;;;;;6149679;23;20017;-81
2023/10/18 05:17:17;;;;;;;39.13;25.60;;;5.00;99.90;;;;;;6150161;23;20115;-81
2023/10/18 05:19:44;;;;;;;37.03;25.45;;;5.00;99.90;;;;;;6174089;23;20012;-81
2023/10/18 05:22:23;;;;;;;37.08;25.38;;;5.00;99.90;;;;;;6149725;23;20048;-81
2023/10/18 05:27:59;;;;;;;27.10;16.80;;;5.00;99.90;;;;;;6174014;23;20144;-81
2023/10/18 05:33:15;;;;;;;30.23;18.02;;;5.00;99.90;;;;;;6173717;23;20338;-81
2023/10/18 05:35:43;;;;;;;30.70;18.67;;;5.00;99.90;;;;;;6148198;23;20033;-81
2023/10/18 05:43:06;;;;;;;30.75;18.05;;;5.00;99.90;;;;;;6174906;23;20279;-81
2023/10/18 05:45:33;;;;;;;34.28;18.77;;;5.00;99.90;;;;;;6175381;23;20013;-81
2023/10/18 05:48:03;;;;;;;31.08;18.38;;;5.00;99.90;;;;;;6174156;23;20119;-81
2023/10/18 05:50:35;;;;;;;31.98;17.40;;;5.00;99.90;;;;;;6150040;23;20017;-81
2023/10/18 05:53:11;;;;;;;29.40;18.17;;;5.00;99.90;;;;;;6150709;23;20039;-81
2023/10/18 05:55:38;;;;;;;34.30;18.80;;;5.00;99.90;;;;;;6174595;23;20023;-81
2023/10/18 05:58:07;;;;;;;32.08;18.30;;;5.00;99.90;;;;;;6149933;23;20016;-81
2023/10/18 06:00:36;;;;;;;31.63;17.67;;;5.10;99.90;;;;;;6175390;23;20354;-81
2023/10/18 06:03:02;;;;;;;29.55;17.75;;;5.00;99.90;;;;;;6173902;23;20016;-81
2023/10/18 06:05:33;;;;;;;29.70;17.92;;;5.00;99.90;;;;;;6174864;23;20016;-81
2023/10/18 06:07:59;;;;;;;32.92;19.10;;;5.10;99.90;;;;;;6150021;23;20326;-81
2023/10/18 06:10:26;;;;;;;33.60;18.85;;;5.10;99.90;;;;;;6148381;23;20046;-81
2023/10/18 06:13:10;;;;;;;29.35;16.50;;;5.00;99.90;;;;;;6149502;23;20013;-81
2023/10/18 06:15:44;;;;;;;31.35;15.25;;;5.10;99.90;;;;;;6150776;23;20020;-81
2023/10/18 06:18:16;;;;;;;27.23;14.30;;;5.10;99.90;;;;;;6150226;23;20031;-81
2023/10/18 06:20:44;;;;;;;30.25;18.50;;;5.10;99.90;;;;;;6149515;23;20021;-81
2023/10/18 06:25:57;;;;;;;29.95;18.20;;;5.10;99.90;;;;;;6173596;23;20463;-81
2023/10/18 06:28:26;;;;;;;31.25;16.58;;;5.10;99.90;;;;;;6174035;23;20016;-81
2023/10/18 06:30:54;;;;;;;28.15;16.80;;;5.10;99.90;;;;;;6174318;23;20095;-80
2023/10/18 06:33:20;;;;;;;27.58;15.60;;;5.10;99.90;;;;;;6173663;23;20052;-81
2023/10/18 06:35:52;;;;;;;29.25;15.82;;;5.20;99.90;;;;;;6174390;23;20509;-81
2023/10/18 06:38:22;;;;;;;28.15;16.05;;;5.20;99.90;;;;;;6150456;23;20088;-81
2023/10/18 06:43:25;;;;;;;25.88;15.57;;;5.30;99.90;;;;;;6174242;23;20023;-81
2023/10/18 06:45:53;;;;;;;28.55;16.10;;;5.30;99.90;;;;;;6175138;23;20478;-81
2023/10/18 06:48:26;;;;;;;26.23;15.25;;;5.40;99.90;;;;;;6149647;23;20458;-81
2023/10/18 06:50:53;;;;;;;31.30;16.17;;;5.30;99.90;;;;;;6174077;23;20378;-81
2023/10/18 06:53:20;;;;;;;28.58;15.95;;;5.40;99.90;;;;;;6149898;23;20016;-81
2023/10/18 06:55:57;;;;;;;32.08;16.45;;;5.50;99.90;;;;;;6174010;23;20039;-81
2023/10/18 07:00:54;;;;;;;27.10;15.13;;;5.50;99.90;;;;;;6174335;23;20466;-81
2023/10/18 07:03:33;;;;;;;29.10;15.60;;;5.60;99.90;;;;;;6175599;23;20457;-82
2023/10/18 07:06:18;;;;;;;27.80;15.60;;;5.60;99.90;;;;;;6148675;23;20087;-81
2023/10/18 07:08:49;;;;;;;28.10;16.25;;;5.60;99.90;;;;;;6148744;23;20399;-81
2023/10/18 07:11:18;;;;;;;27.20;15.50;;;5.60;99.90;;;;;;6148902;23;20017;-81
2023/10/18 07:13:48;;;;;;;29.48;15.90;;;5.70;99.90;;;;;;6173419;23;20095;-81
2023/10/18 07:21:44;;;;;;;29.50;16.10;;;5.90;99.90;;;;;;6199603;23;19912;-81
2023/10/18 07:24:10;;;;;;;28.30;15.70;;;5.90;99.90;;;;;;6173027;23;20016;-81
2023/10/18 07:26:39;;;;;;;29.10;16.73;;;6.00;99.90;;;;;;6173524;23;20277;-81
2023/10/18 07:29:08;;;;;;;29.45;14.55;;;6.10;99.90;;;;;;6148243;23;20647;-81
2023/10/18 07:31:46;;;;;;;25.80;14.00;;;6.10;99.90;;;;;;6173946;23;20039;-81
2023/10/18 07:34:19;;;;;;;27.15;12.70;;;6.20;99.90;;;;;;6148025;23;20807;-81
2023/10/18 07:36:45;;;;;;;21.60;12.95;;;6.30;99.90;;;;;;6174088;23;20013;-81
2023/10/18 07:39:12;;;;;;;25.08;13.10;;;6.30;99.90;;;;;;6173060;23;20019;-81
2023/10/18 07:41:40;;;;;;;27.08;13.32;;;6.40;99.90;;;;;;6173950;23;20013;-81
2023/10/18 07:44:06;;;;;;;27.48;14.80;;;6.40;99.90;;;;;;6148229;23;20095;-81
2023/10/18 07:46:42;;;;;;;30.05;14.82;;;6.50;99.90;;;;;;6149133;23;20050;-81
2023/10/18 07:49:15;;;;;;;28.38;15.30;;;6.60;99.90;;;;;;6148602;23;20099;-81
2023/10/18 07:51:48;;;;;;;31.20;16.30;;;6.60;99.90;;;;;;6174220;23;20017;-81
2023/10/18 07:54:20;;;;;;;26.67;15.60;;;6.60;99.90;;;;;;6172578;23;20016;-81
2023/10/18 07:56:49;;;;;;;28.77;15.10;;;6.70;99.90;;;;;;6148298;23;20086;-82
2023/10/18 07:59:28;;;;;;;27.10;15.63;;;6.80;99.90;;;;;;6148291;23;20047;-81
2023/10/18 08:04:51;;;;;;;30.65;15.02;;;6.90;99.90;;;;;;6159344;23;20046;-81
2023/10/18 08:07:20;;;;;;;23.73;13.52;;;6.90;99.90;;;;;;6150278;23;20509;-81
2023/10/18 08:09:51;;;;;;;24.58;14.00;;;7.10;99.90;;;;;;6173612;23;20118;-82
2023/10/18 08:12:28;;;;;;;25.13;13.48;;;7.10;99.90;;;;;;6148063;23;20008;-81
2023/10/18 08:14:56;;;;;;;20.65;12.73;;;7.20;99.90;;;;;;6176840;23;20100;-81
2023/10/18 08:17:29;;;;;;;24.58;13.88;;;7.20;99.90;;;;;;6148075;23;20017;-81
2023/10/18 08:23:19;;;;;;;23.55;13.25;;;7.40;99.90;;;;;;6112232;23;20077;-82
2023/10/18 08:25:51;;;;;;;21.92;12.32;;;7.50;99.90;;;;;;6087193;23;20050;-81
2023/10/18 08:28:20;;;;;;;22.05;12.32;;;7.60;99.90;;;;;;6125083;23;20131;-81
2023/10/18 08:33:11;;;;;;;24.30;12.10;;;7.70;99.90;;;;;;6173190;23;20491;-81
2023/10/18 08:35:37;;;;;;;21.85;12.00;;;7.70;99.90;;;;;;6148786;23;20017;-81
2023/10/18 08:38:04;;;;;;;20.80;10.32;;;7.80;99.90;;;;;;6149254;23;20522;-81
2023/10/18 08:43:15;;;;;;;20.45;11.25;;;8.00;99.90;;;;;;6172762;23;20550;-81
2023/10/18 08:45:47;;;;;;;19.92;10.68;;;8.10;99.90;;;;;;6149357;23;20091;-82
2023/10/18 08:48:16;;;;;;;19.75;11.27;;;8.10;99.90;;;;;;6148536;23;20020;-81
2023/10/18 08:50:42;;;;;;;19.33;10.88;;;8.10;99.90;;;;;;6148365;23;20446;-81
2023/10/18 08:53:10;;;;;;;19.50;10.38;;;8.30;99.90;;;;;;6173400;23;20463;-81
2023/10/18 08:55:45;;;;;;;18.92;9.77;;;8.30;99.90;;;;;;6148105;23;20055;-81
2023/10/18 08:58:17;;;;;;;16.90;9.38;;;8.20;99.90;;;;;;6172134;23;20013;-81
2023/10/18 09:03:14;;;;;;;18.85;11.10;;;8.40;99.90;;;;;;6198446;23;20032;-81
2023/10/18 09:05:41;;;;;;;19.25;9.95;;;8.60;99.90;;;;;;6173489;23;20370;-82
2023/10/18 09:08:14;;;;;;;16.67;9.68;;;8.50;99.90;;;;;;6148621;23;20297;-81
2023/10/18 09:10:48;;;;;;;16.65;9.73;;;8.50;99.90;;;;;;6171836;23;20082;-81
2023/10/18 09:15:49;;;;;;;17.90;10.20;;;8.70;99.90;;;;;;6175358;23;20417;-81
2023/10/18 09:18:16;;;;;;;17.77;9.38;;;8.70;99.90;;;;;;6174718;23;20017;-81
2023/10/18 09:20:41;;;;;;;19.80;9.63;;;8.80;99.90;;;;;;6175100;23;20024;-81
2023/10/18 09:23:14;;;;;;;14.48;9.15;;;8.80;99.90;;;;;;6174963;23;20015;-81
2023/10/18 09:26:05;;;;;;;17.70;9.15;;;8.90;99.90;;;;;;6173773;23;20024;-82
2023/10/18 09:28:35;;;;;;;17.00;9.20;;;9.00;99.90;;;;;;6150048;23;20056;-81
2023/10/18 09:31:12;;;;;;;14.63;8.90;;;9.20;99.90;;;;;;6175986;23;20012;-81
2023/10/18 09:33:51;;;;;;;15.32;8.82;;;9.30;99.90;;;;;;6150336;23;20594;-81
2023/10/18 09:36:23;;;;;;;17.17;8.85;;;9.20;99.90;;;;;;6174968;23;20044;-82
2023/10/18 09:38:51;;;;;;;20.05;9.52;;;9.30;99.90;;;;;;6174685;23;20058;-82
2023/10/18 09:41:17;;;;;;;12.80;8.27;;;9.40;99.90;;;;;;6175136;23;20009;-81
2023/10/18 09:43:44;;;;;;;17.33;8.45;;;9.50;99.90;;;;;;6150792;23;20016;-82
2023/10/18 09:46:10;;;;;;;14.73;8.75;;;9.50;99.90;;;;;;6175522;23;20020;-81
2023/10/18 09:48:41;;;;;;;14.25;8.20;;;9.70;99.90;;;;;;6175710;23;20319;-81
2023/10/18 09:51:08;;;;;;;18.00;8.68;;;9.80;99.90;;;;;;6150660;23;20027;-81
2023/10/18 09:53:43;;;;;;;15.30;9.13;;;9.90;99.90;;;;;;6174874;23;20055;-81
2023/10/18 09:56:13;;;;;;;14.43;8.48;;;9.80;99.90;;;;;;6151464;23;20058;-81
2023/10/18 09:58:46;;;;;;;14.63;8.18;;;9.80;99.90;;;;;;6174642;23;20031;-81
2023/10/18 10:01:13;;;;;;;14.25;8.07;;;9.70;99.90;;;;;;6149862;23;20020;-81
2023/10/18 10:03:53;;;;;;;14.15;8.40;;;9.90;99.90;;;;;;6175473;23;20267;-81
2023/10/18 10:06:24;;;;;;;13.70;9.32;;;9.90;99.90;;;;;;6150288;23;20017;-82
2023/10/18 10:08:55;;;;;;;16.25;9.25;;;10.00;99.90;;;;;;6174911;23;20389;-81
2023/10/18 10:11:22;;;;;;;13.32;9.43;;;10.10;99.90;;;;;;6150484;23;20497;-82
2023/10/18 10:13:52;;;;;;;14.95;9.70;;;10.20;99.90;;;;;;6175118;23;20059;-82
2023/10/18 10:16:24;;;;;;;15.15;9.23;;;10.50;99.90;;;;;;6149512;23;20477;-81
2023/10/18 10:18:52;;;;;;;15.15;9.05;;;10.20;99.90;;;;;;6149556;23;20066;-81
2023/10/18 10:21:21;;;;;;;14.45;9.38;;;10.40;99.90;;;;;;6173835;23;20119;-82
2023/10/18 10:23:55;;;;;;;14.32;9.25;;;10.50;99.90;;;;;;6149374;23;20035;-81
2023/10/18 10:26:27;;;;;;;13.15;9.20;;;10.60;99.90;;;;;;6150188;23;20033;-82
2023/10/18 10:31:51;;;;;;;13.23;9.07;;;10.60;99.90;;;;;;6174640;23;20098;-81
2023/10/18 10:34:31;;;;;;;16.02;9.65;;;10.70;99.90;;;;;;6174491;23;20057;-82
2023/10/18 10:37:12;;;;;;;14.35;9.40;;;10.80;99.90;;;;;;6149661;23;20016;-82
2023/10/18 10:39:51;;;;;;;15.63;8.95;;;10.80;99.90;;;;;;6174048;23;20012;-82
2023/10/18 10:42:43;;;;;;;13.20;8.98;;;10.90;99.90;;;;;;6149298;23;20017;-81
2023/10/18 10:45:38;;;;;;;13.93;8.40;;;10.90;99.90;;;;;;6174711;23;20671;-81
2023/10/18 10:50:57;;;;;;;13.48;8.77;;;11.00;99.90;;;;;;6173837;23;20103;-82
2023/10/18 10:53:29;;;;;;;11.75;8.13;;;11.10;99.90;;;;;;6151200;23;20153;-81
2023/10/18 10:55:55;;;;;;;12.15;8.50;;;11.10;99.90;;;;;;6149345;23;20315;-82
2023/10/18 10:58:22;;;;;;;12.05;8.23;;;11.30;99.90;;;;;;6175140;23;20150;-81
2023/10/18 11:01:02;;;;;;;14.68;8.05;;;11.20;99.90;;;;;;6174995;23;20044;-81
2023/10/18 11:03:52;;;;;;;11.85;7.38;;;11.20;99.90;;;;;;6174742;23;20024;-82
2023/10/18 11:06:26;;;;;;;13.70;8.77;;;11.40;99.90;;;;;;6174710;23;20328;-82
2023/10/18 11:08:56;;;;;;;11.25;7.32;;;11.40;99.90;;;;;;6174628;23;20024;-82
2023/10/18 11:11:22;;;;;;;13.98;7.82;;;11.50;99.90;;;;;;6175296;23;20017;-82
2023/10/18 11:13:52;;;;;;;11.85;7.70;;;11.60;99.90;;;;;;6149350;23;20017;-82
2023/10/18 11:16:20;;;;;;;13.70;7.53;;;11.60;99.90;;;;;;6175504;23;20121;-82
2023/10/18 11:18:52;;;;;;;16.17;8.02;;;11.40;99.90;;;;;;6174470;23;20013;-82
2023/10/18 11:21:21;;;;;;;12.50;7.40;;;11.60;99.90;;;;;;6148990;23;20500;-82
2023/10/18 11:24:14;;;;;;;10.85;7.43;;;11.90;99.90;;;;;;6148578;23;20016;-81
2023/10/18 11:26:41;;;;;;;11.65;7.53;;;11.80;99.90;;;;;;6173076;23;20031;-81
2023/10/18 11:29:07;;;;;;;15.27;8.02;;;11.70;99.90;;;;;;6172505;23;20023;-81
2023/10/18 11:31:37;;;;;;;12.13;8.30;;;12.10;99.90;;;;;;6149696;23;20114;-81
2023/10/18 11:34:06;;;;;;;11.25;7.50;;;12.10;99.90;;;;;;6174021;23;20158;-81
2023/10/18 11:36:35;;;;;;;11.23;7.40;;;12.30;99.90;;;;;;6174913;23;20296;-82
2023/10/18 11:39:07;;;;;;;10.52;6.82;;;12.40;99.90;;;;;;6147337;23;20316;-82
2023/10/18 11:41:37;;;;;;;11.52;7.43;;;12.10;99.90;;;;;;6174758;23;20091;-82
2023/10/18 11:44:06;;;;;;;9.80;7.10;;;12.10;99.90;;;;;;6148862;23;20087;-81
2023/10/18 11:46:46;;;;;;;12.60;6.78;;;12.30;99.90;;;;;;6174908;23;20020;-81
2023/10/18 11:49:22;;;;;;;15.23;7.45;;;12.20;99.90;;;;;;6173686;23;20039;-81
2023/10/18 11:51:53;;;;;;;11.10;7.00;;;12.30;99.90;;;;;;6150478;23;20523;-82
2023/10/18 11:54:35;;;;;;;14.40;6.55;;;12.30;99.90;;;;;;6173759;23;20009;-82
2023/10/18 11:57:05;;;;;;;12.27;7.47;;;12.30;99.90;;;;;;6173586;23;20019;-81
2023/10/18 11:59:50;;;;;;;11.23;6.95;;;12.30;99.90;;;;;;6148926;23;20087;-81
2023/10/18 12:02:16;;;;;;;11.53;7.27;;;12.40;99.90;;;;;;6148735;23;20009;-81
2023/10/18 12:04:44;;;;;;;11.18;6.93;;;12.40;99.90;;;;;;6173452;23;20240;-82
2023/10/18 12:07:13;;;;;;;10.98;7.30;;;12.40;99.90;;;;;;6174329;23;20182;-82
2023/10/18 12:09:51;;;;;;;10.20;7.32;;;12.70;99.90;;;;;;6172321;23;20012;-81
2023/10/18 12:12:20;;;;;;;9.20;6.43;;;12.70;99.90;;;;;;6173784;23;20647;-82
2023/10/18 12:14:47;;;;;;;9.85;6.72;;;12.80;99.90;;;;;;6148898;23;20338;-82
2023/10/18 12:17:13;;;;;;;11.73;7.15;;;12.80;99.90;;;;;;6174329;23;20016;-81
2023/10/18 12:19:40;;;;;;;11.82;6.80;;;12.80;99.90;;;;;;6174473;23;20051;-82
2023/10/18 12:22:10;;;;;;;10.45;7.03;;;12.90;99.90;;;;;;6148877;23;20105;-81
2023/10/18 12:24:37;;;;;;;9.65;6.60;;;12.90;99.90;;;;;;6147952;23;20013;-82
2023/10/18 12:27:18;;;;;;;9.20;6.80;;;13.10;99.90;;;;;;6173108;23;20095;-81
2023/10/18 12:29:44;;;;;;;9.27;6.07;;;13.00;99.90;;;;;;6172615;23;20017;-82
2023/10/18 12:32:23;;;;;;;9.63;6.22;;;12.80;99.90;;;;;;6148724;23;20013;-81
2023/10/18 12:34:49;;;;;;;10.52;6.28;;;13.00;99.90;;;;;;6148790;23;20349;-82
2023/10/18 12:37:16;;;;;;;9.75;6.00;;;13.10;99.90;;;;;;6175665;23;20008;-81
2023/10/18 12:39:46;;;;;;;10.40;5.95;;;13.10;99.90;;;;;;6149205;23;20354;-81
2023/10/18 12:42:14;;;;;;;8.95;5.97;;;13.20;99.90;;;;;;6149850;23;20019;-82
2023/10/18 12:44:40;;;;;;;10.27;5.88;;;13.20;99.90;;;;;;6173575;23;20288;-82
2023/10/18 12:47:19;;;;;;;11.07;6.65;;;13.40;99.90;;;;;;6148688;23;20024;-81
2023/10/18 12:49:46;;;;;;;8.43;5.93;;;13.30;99.90;;;;;;6173861;23;20492;-81
2023/10/18 12:55:00;;;;;;;9.52;5.82;;;13.20;99.90;;;;;;6174316;23;20028;-82
2023/10/18 12:57:32;;;;;;;10.55;5.90;;;12.90;99.90;;;;;;6174854;23;20047;-81
2023/10/18 13:05:12;;;;;;;8.90;6.18;;;13.20;99.90;;;;;;6174810;23;20020;-82
2023/10/18 13:07:43;;;;;;;11.55;6.47;;;13.10;99.90;;;;;;6177214;23;20078;-82
2023/10/18 13:10:13;;;;;;;7.82;5.57;;;13.20;99.90;;;;;;6151302;23;20404;-82
2023/10/18 13:12:50;;;;;;;9.43;6.57;;;13.30;99.90;;;;;;6175271;23;20317;-82
2023/10/18 13:15:17;;;;;;;11.98;6.85;;;13.20;99.90;;;;;;6152083;23;20686;-82
2023/10/18 13:17:43;;;;;;;10.13;6.50;;;13.30;99.90;;;;;;6175154;23;20044;-81
2023/10/18 13:20:14;;;;;;;11.98;6.20;;;13.10;99.90;;;;;;6175886;23;20354;-82
2023/10/18 13:22:40;;;;;;;9.27;6.22;;;13.20;99.90;;;;;;6176161;23;20013;-82
2023/10/18 13:25:09;;;;;;;9.73;6.15;;;13.40;99.90;;;;;;6150375;23;20323;-82
2023/10/18 13:27:38;;;;;;;10.70;6.35;;;13.40;99.90;;;;;;6151331;23;20052;-82
2023/10/18 13:32:50;;;;;;;10.50;5.72;;;13.70;99.90;;;;;;6174498;23;20025;-82
2023/10/18 13:35:16;;;;;;;9.10;5.60;;;13.70;99.90;;;;;;6149844;23;20323;-82
2023/10/18 13:37:43;;;;;;;9.50;5.72;;;13.60;99.90;;;;;;6150241;23;20019;-82
2023/10/18 13:40:18;;;;;;;10.13;6.20;;;13.90;99.90;;;;;;6173138;23;20012;-82
2023/10/18 13:42:50;;;;;;;11.88;6.53;;;14.40;99.90;;;;;;6174390;23;20016;-82
2023/10/18 13:45:16;;;;;;;10.80;6.25;;;14.60;99.90;;;;;;6175009;23;20111;-82
2023/10/18 13:47:42;;;;;;;10.82;6.63;;;14.90;99.90;;;;;;6176467;23;20410;-82
2023/10/18 13:50:10;;;;;;;10.52;6.32;;;16.10;99.90;;;;;;6174633;23;20024;-82
2023/10/18 13:52:38;;;;;;;11.02;5.60;;;16.60;99.90;;;;;;6150559;23;20353;-82
2023/10/18 13:55:04;;;;;;;9.10;6.28;;;16.60;99.90;;;;;;6148664;23;20423;-82
2023/10/18 13:57:30;;;;;;;9.65;5.88;;;15.90;99.90;;;;;;6149736;23;20021;-82
2023/10/18 13:59:59;;;;;;;8.32;5.30;;;15.70;99.90;;;;;;6174683;23;20095;-82
2023/10/18 14:02:29;;;;;;;8.88;6.18;;;15.20;99.90;;;;;;6174169;23;20024;-82
2023/10/18 14:04:55;;;;;;;9.48;5.63;;;14.50;99.90;;;;;;6174090;23;20024;-82
2023/10/18 14:07:21;;;;;;;8.48;5.82;;;14.40;99.90;;;;;;6175322;23;20342;-82
2023/10/18 14:09:47;;;;;;;8.13;5.60;;;14.20;99.90;;;;;;6172805;23;20012;-82
2023/10/18 14:12:13;;;;;;;7.82;5.47;;;14.00;99.90;;;;;;6150260;23;20012;-82
2023/10/18 14:14:39;;;;;;;11.35;5.65;;;13.70;99.90;;;;;;6174094;23;20434;-82
2023/10/18 14:17:04;;;;;;;10.07;6.07;;;13.60;99.90;;;;;;6175677;23;20027;-82
2023/10/18 14:19:30;;;;;;;8.05;5.15;;;13.30;99.90;;;;;;6175501;23;20024;-82
2023/10/18 14:21:56;;;;;;;8.43;5.20;;;13.50;99.90;;;;;;6176081;23;20151;-82